Terminal Aerodrome Forecast
Issued by NWS

Home | Current Version | Previous Version | Text Only | Print | Product List | Glossary On
Versions: 1 2 3 4 5 6 7 8 9 10 11 12 13 14 15 16 17 18
000
FTUS44 KSJT 231213 AAA
TAFJCT
TAF AMD
KJCT 231213Z 2312/2412 17010KT P6SM OVC020
     FM231800 17030G40KT P6SM SCT250
     FM240000 17025G35KT P6SM BKN250 PROB30 2400/2406 P6SM -TSRA
      OVC050CB
     FM240600 17015G25KT P6SM BKN250 PROB30 2406/2412 P6SM -TSRA
      OVC050CB=

USA.gov is the U.S. government's official web portal to all federal, state and local government web resources and services.